sensor_id;sensor_type;location;lat;lon;timestamp;P1;durP1;ratioP1;P2;durP2;ratioP2
70169;SDS011;57543;45.442;9.212;2022-12-20T00:02:55;58.00;;;27.45;;
70169;SDS011;57543;45.442;9.212;2022-12-20T00:05:59;59.40;;;28.15;;
70169;SDS011;57543;45.442;9.212;2022-12-20T00:09:04;60.72;;;27.92;;
70169;SDS011;57543;45.442;9.212;2022-12-20T00:12:09;52.40;;;25.90;;
70169;SDS011;57543;45.442;9.212;2022-12-20T00:15:13;58.67;;;27.40;;
70169;SDS011;57543;45.442;9.212;2022-12-20T00:18:16;58.00;;;28.42;;
70169;SDS011;57543;45.442;9.212;2022-12-20T00:21:20;59.65;;;29.27;;
70169;SDS011;57543;45.442;9.212;2022-12-20T00:24:25;63.35;;;28.77;;
70169;SDS011;57543;45.442;9.212;2022-12-20T00:27:29;56.25;;;27.50;;
70169;SDS011;57543;45.442;9.212;2022-12-20T00:30:34;57.57;;;29.17;;
70169;SDS011;57543;45.442;9.212;2022-12-20T00:33:38;57.30;;;27.40;;
70169;SDS011;57543;45.442;9.212;2022-12-20T00:36:42;59.28;;;27.25;;
70169;SDS011;57543;45.442;9.212;2022-12-20T00:39:48;55.92;;;27.65;;
70169;SDS011;57543;45.442;9.212;2022-12-20T00:42:51;58.83;;;29.60;;
70169;SDS011;57543;45.442;9.212;2022-12-20T00:45:55;59.70;;;28.70;;
70169;SDS011;57543;45.442;9.212;2022-12-20T00:48:58;57.15;;;27.42;;
70169;SDS011;57543;45.442;9.212;2022-12-20T00:52:02;59.08;;;29.20;;
70169;SDS011;57543;45.442;9.212;2022-12-20T00:55:06;60.75;;;28.40;;
70169;SDS011;57543;45.442;9.212;2022-12-20T00:58:10;64.25;;;29.55;;
70169;SDS011;57543;45.442;9.212;2022-12-20T01:01:19;60.63;;;28.83;;
70169;SDS011;57543;45.442;9.212;2022-12-20T01:04:24;60.00;;;28.58;;
70169;SDS011;57543;45.442;9.212;2022-12-20T01:07:29;60.05;;;28.08;;
70169;SDS011;57543;45.442;9.212;2022-12-20T01:10:33;56.60;;;27.42;;
70169;SDS011;57543;45.442;9.212;2022-12-20T01:13:38;58.85;;;28.60;;
70169;SDS011;57543;45.442;9.212;2022-12-20T01:16:44;59.70;;;29.40;;
70169;SDS011;57543;45.442;9.212;2022-12-20T01:19:51;57.40;;;29.02;;
70169;SDS011;57543;45.442;9.212;2022-12-20T01:22:54;62.20;;;29.20;;
70169;SDS011;57543;45.442;9.212;2022-12-20T01:25:58;55.58;;;27.90;;
70169;SDS011;57543;45.442;9.212;2022-12-20T01:29:03;56.63;;;28.67;;
70169;SDS011;57543;45.442;9.212;2022-12-20T01:32:07;59.10;;;28.97;;
70169;SDS011;57543;45.442;9.212;2022-12-20T01:35:11;58.53;;;28.65;;
70169;SDS011;57543;45.442;9.212;2022-12-20T01:38:15;55.95;;;27.75;;
70169;SDS011;57543;45.442;9.212;2022-12-20T01:41:19;61.22;;;28.92;;
70169;SDS011;57543;45.442;9.212;2022-12-20T01:47:29;58.57;;;27.60;;
70169;SDS011;57543;45.442;9.212;2022-12-20T01:50:37;62.13;;;28.55;;
70169;SDS011;57543;45.442;9.212;2022-12-20T01:53:41;58.97;;;28.33;;
70169;SDS011;57543;45.442;9.212;2022-12-20T01:56:46;61.55;;;29.15;;
70169;SDS011;57543;45.442;9.212;2022-12-20T01:59:54;59.55;;;28.45;;
70169;SDS011;57543;45.442;9.212;2022-12-20T02:03:00;61.23;;;30.27;;
70169;SDS011;57543;45.442;9.212;2022-12-20T02:06:15;57.70;;;28.00;;
70169;SDS011;57543;45.442;9.212;2022-12-20T02:09:23;58.97;;;28.60;;
70169;SDS011;57543;45.442;9.212;2022-12-20T02:12:38;58.67;;;28.15;;
70169;SDS011;57543;45.442;9.212;2022-12-20T02:15:55;58.00;;;26.98;;
70169;SDS011;57543;45.442;9.212;2022-12-20T02:25:45;61.63;;;29.77;;
70169;SDS011;57543;45.442;9.212;2022-12-20T02:32:21;60.17;;;28.88;;
70169;SDS011;57543;45.442;9.212;2022-12-20T02:35:30;62.20;;;29.20;;
70169;SDS011;57543;45.442;9.212;2022-12-20T02:38:36;58.90;;;28.25;;
70169;SDS011;57543;45.442;9.212;2022-12-20T02:41:48;63.17;;;29.25;;
70169;SDS011;57543;45.442;9.212;2022-12-20T02:45:05;69.07;;;30.15;;
70169;SDS011;57543;45.442;9.212;2022-12-20T02:48:20;59.88;;;29.13;;
70169;SDS011;57543;45.442;9.212;2022-12-20T02:51:29;59.97;;;28.93;;
70169;SDS011;57543;45.442;9.212;2022-12-20T02:54:35;61.17;;;27.67;;
70169;SDS011;57543;45.442;9.212;2022-12-20T02:57:51;64.00;;;29.88;;
70169;SDS011;57543;45.442;9.212;2022-12-20T03:00:57;63.22;;;29.67;;
70169;SDS011;57543;45.442;9.212;2022-12-20T03:04:06;61.72;;;28.58;;
70169;SDS011;57543;45.442;9.212;2022-12-20T03:07:11;59.47;;;27.57;;
70169;SDS011;57543;45.442;9.212;2022-12-20T03:10:16;59.38;;;27.88;;
70169;SDS011;57543;45.442;9.212;2022-12-20T03:13:21;62.80;;;28.52;;
70169;SDS011;57543;45.442;9.212;2022-12-20T03:16:32;61.25;;;27.70;;
70169;SDS011;57543;45.442;9.212;2022-12-20T03:19:36;62.65;;;27.58;;
70169;SDS011;57543;45.442;9.212;2022-12-20T03:22:39;58.53;;;26.47;;
70169;SDS011;57543;45.442;9.212;2022-12-20T03:25:42;56.55;;;26.92;;
70169;SDS011;57543;45.442;9.212;2022-12-20T03:28:51;58.45;;;26.42;;
70169;SDS011;57543;45.442;9.212;2022-12-20T03:31:57;59.90;;;26.23;;
70169;SDS011;57543;45.442;9.212;2022-12-20T03:35:01;60.05;;;26.85;;
70169;SDS011;57543;45.442;9.212;2022-12-20T03:38:10;54.33;;;25.70;;
70169;SDS011;57543;45.442;9.212;2022-12-20T03:41:15;59.03;;;27.00;;
70169;SDS011;57543;45.442;9.212;2022-12-20T03:44:18;57.67;;;27.17;;
70169;SDS011;57543;45.442;9.212;2022-12-20T03:47:22;58.83;;;27.50;;
70169;SDS011;57543;45.442;9.212;2022-12-20T03:50:26;56.25;;;27.10;;
70169;SDS011;57543;45.442;9.212;2022-12-20T03:53:30;58.17;;;26.90;;
70169;SDS011;57543;45.442;9.212;2022-12-20T03:56:34;55.40;;;26.73;;
70169;SDS011;57543;45.442;9.212;2022-12-20T03:59:38;57.35;;;26.27;;
70169;SDS011;57543;45.442;9.212;2022-12-20T04:02:44;57.15;;;26.85;;
70169;SDS011;57543;45.442;9.212;2022-12-20T04:05:49;57.65;;;27.05;;
70169;SDS011;57543;45.442;9.212;2022-12-20T04:08:52;56.80;;;27.47;;
70169;SDS011;57543;45.442;9.212;2022-12-20T04:12:02;61.15;;;27.40;;
70169;SDS011;57543;45.442;9.212;2022-12-20T04:15:08;56.88;;;27.05;;
70169;SDS011;57543;45.442;9.212;2022-12-20T04:18:14;56.78;;;27.10;;
70169;SDS011;57543;45.442;9.212;2022-12-20T04:21:25;60.55;;;28.25;;
70169;SDS011;57543;45.442;9.212;2022-12-20T04:24:35;58.27;;;27.23;;
70169;SDS011;57543;45.442;9.212;2022-12-20T04:27:47;60.30;;;29.17;;
70169;SDS011;57543;45.442;9.212;2022-12-20T04:30:51;57.70;;;26.70;;
70169;SDS011;57543;45.442;9.212;2022-12-20T04:34:00;63.80;;;28.15;;
70169;SDS011;57543;45.442;9.212;2022-12-20T04:37:05;62.95;;;27.92;;
70169;SDS011;57543;45.442;9.212;2022-12-20T04:40:21;58.70;;;27.37;;
70169;SDS011;57543;45.442;9.212;2022-12-20T04:43:30;57.63;;;27.88;;
70169;SDS011;57543;45.442;9.212;2022-12-20T04:46:36;62.97;;;29.25;;
70169;SDS011;57543;45.442;9.212;2022-12-20T04:49:41;57.08;;;27.42;;
70169;SDS011;57543;45.442;9.212;2022-12-20T04:52:45;58.67;;;29.05;;
70169;SDS011;57543;45.442;9.212;2022-12-20T04:56:08;61.10;;;28.23;;
70169;SDS011;57543;45.442;9.212;2022-12-20T04:59:11;58.38;;;28.00;;
70169;SDS011;57543;45.442;9.212;2022-12-20T05:02:18;62.03;;;28.58;;
70169;SDS011;57543;45.442;9.212;2022-12-20T05:05:25;59.97;;;28.40;;
70169;SDS011;57543;45.442;9.212;2022-12-20T05:08:31;60.83;;;29.27;;
70169;SDS011;57543;45.442;9.212;2022-12-20T05:11:35;62.33;;;28.23;;
70169;SDS011;57543;45.442;9.212;2022-12-20T05:14:42;63.10;;;30.25;;
70169;SDS011;57543;45.442;9.212;2022-12-20T05:17:47;56.33;;;27.67;;
70169;SDS011;57543;45.442;9.212;2022-12-20T05:20:53;56.80;;;28.00;;
70169;SDS011;57543;45.442;9.212;2022-12-20T05:24:19;53.63;;;27.52;;
70169;SDS011;57543;45.442;9.212;2022-12-20T05:28:05;54.53;;;26.70;;
70169;SDS011;57543;45.442;9.212;2022-12-20T05:31:11;62.97;;;28.40;;
70169;SDS011;57543;45.442;9.212;2022-12-20T05:34:15;52.13;;;25.88;;
70169;SDS011;57543;45.442;9.212;2022-12-20T05:37:25;53.88;;;26.42;;
70169;SDS011;57543;45.442;9.212;2022-12-20T05:40:30;55.88;;;26.30;;
70169;SDS011;57543;45.442;9.212;2022-12-20T05:43:34;53.43;;;26.20;;
70169;SDS011;57543;45.442;9.212;2022-12-20T05:46:40;54.17;;;25.83;;
70169;SDS011;57543;45.442;9.212;2022-12-20T05:49:48;49.72;;;24.80;;
70169;SDS011;57543;45.442;9.212;2022-12-20T05:52:52;54.05;;;25.33;;
70169;SDS011;57543;45.442;9.212;2022-12-20T05:55:56;51.13;;;25.95;;
70169;SDS011;57543;45.442;9.212;2022-12-20T05:59:07;52.13;;;25.90;;
70169;SDS011;57543;45.442;9.212;2022-12-20T06:02:12;50.25;;;26.23;;
70169;SDS011;57543;45.442;9.212;2022-12-20T06:05:17;55.45;;;27.23;;
70169;SDS011;57543;45.442;9.212;2022-12-20T06:08:22;54.70;;;27.25;;
70169;SDS011;57543;45.442;9.212;2022-12-20T06:11:27;53.88;;;26.58;;
70169;SDS011;57543;45.442;9.212;2022-12-20T06:14:37;51.13;;;25.23;;
70169;SDS011;57543;45.442;9.212;2022-12-20T06:17:41;50.88;;;25.33;;
70169;SDS011;57543;45.442;9.212;2022-12-20T06:20:48;54.35;;;25.23;;
70169;SDS011;57543;45.442;9.212;2022-12-20T06:23:54;48.33;;;23.75;;
70169;SDS011;57543;45.442;9.212;2022-12-20T06:26:58;50.47;;;25.20;;
70169;SDS011;57543;45.442;9.212;2022-12-20T06:30:04;46.90;;;23.57;;
70169;SDS011;57543;45.442;9.212;2022-12-20T06:33:17;47.25;;;22.95;;
70169;SDS011;57543;45.442;9.212;2022-12-20T06:36:21;43.33;;;22.40;;
70169;SDS011;57543;45.442;9.212;2022-12-20T06:39:25;42.13;;;22.40;;
70169;SDS011;57543;45.442;9.212;2022-12-20T06:42:39;44.58;;;23.77;;
70169;SDS011;57543;45.442;9.212;2022-12-20T06:45:44;43.87;;;22.27;;
70169;SDS011;57543;45.442;9.212;2022-12-20T06:48:49;47.10;;;24.08;;
70169;SDS011;57543;45.442;9.212;2022-12-20T06:51:53;46.65;;;22.98;;
70169;SDS011;57543;45.442;9.212;2022-12-20T06:55:03;44.65;;;23.63;;
70169;SDS011;57543;45.442;9.212;2022-12-20T06:58:11;46.00;;;23.17;;
70169;SDS011;57543;45.442;9.212;2022-12-20T07:01:14;43.43;;;22.67;;
70169;SDS011;57543;45.442;9.212;2022-12-20T07:04:18;42.70;;;21.85;;
70169;SDS011;57543;45.442;9.212;2022-12-20T07:07:22;39.15;;;21.35;;
70169;SDS011;57543;45.442;9.212;2022-12-20T07:10:26;39.67;;;20.50;;
70169;SDS011;57543;45.442;9.212;2022-12-20T07:13:29;40.25;;;20.73;;
70169;SDS011;57543;45.442;9.212;2022-12-20T07:16:34;38.07;;;20.83;;
70169;SDS011;57543;45.442;9.212;2022-12-20T07:19:41;40.42;;;20.73;;
70169;SDS011;57543;45.442;9.212;2022-12-20T07:22:48;39.58;;;20.67;;
70169;SDS011;57543;45.442;9.212;2022-12-20T07:25:54;41.90;;;20.55;;
70169;SDS011;57543;45.442;9.212;2022-12-20T07:28:59;42.03;;;20.92;;
70169;SDS011;57543;45.442;9.212;2022-12-20T07:32:03;39.03;;;20.30;;
70169;SDS011;57543;45.442;9.212;2022-12-20T07:35:08;40.35;;;21.42;;
70169;SDS011;57543;45.442;9.212;2022-12-20T07:38:12;41.70;;;20.52;;
70169;SDS011;57543;45.442;9.212;2022-12-20T07:41:16;40.67;;;20.08;;
70169;SDS011;57543;45.442;9.212;2022-12-20T07:44:21;37.40;;;20.17;;
70169;SDS011;57543;45.442;9.212;2022-12-20T07:47:25;39.27;;;20.03;;
70169;SDS011;57543;45.442;9.212;2022-12-20T07:50:29;38.92;;;20.83;;
70169;SDS011;57543;45.442;9.212;2022-12-20T07:53:37;37.80;;;20.63;;
70169;SDS011;57543;45.442;9.212;2022-12-20T07:56:46;40.85;;;21.13;;
70169;SDS011;57543;45.442;9.212;2022-12-20T07:59:53;40.38;;;21.80;;
70169;SDS011;57543;45.442;9.212;2022-12-20T08:03:04;43.30;;;22.67;;
70169;SDS011;57543;45.442;9.212;2022-12-20T08:06:13;48.20;;;24.50;;
70169;SDS011;57543;45.442;9.212;2022-12-20T08:09:18;49.38;;;25.30;;
70169;SDS011;57543;45.442;9.212;2022-12-20T08:12:22;52.42;;;26.35;;
70169;SDS011;57543;45.442;9.212;2022-12-20T08:15:28;54.40;;;26.25;;
70169;SDS011;57543;45.442;9.212;2022-12-20T08:18:32;55.80;;;27.13;;
70169;SDS011;57543;45.442;9.212;2022-12-20T08:21:36;55.28;;;26.52;;
70169;SDS011;57543;45.442;9.212;2022-12-20T08:24:39;56.47;;;26.75;;
70169;SDS011;57543;45.442;9.212;2022-12-20T08:27:43;55.08;;;26.98;;
70169;SDS011;57543;45.442;9.212;2022-12-20T08:30:47;54.67;;;27.85;;
70169;SDS011;57543;45.442;9.212;2022-12-20T08:33:53;54.50;;;27.90;;
70169;SDS011;57543;45.442;9.212;2022-12-20T08:36:57;53.13;;;27.35;;
70169;SDS011;57543;45.442;9.212;2022-12-20T08:40:00;54.35;;;27.67;;
70169;SDS011;57543;45.442;9.212;2022-12-20T08:43:05;55.15;;;28.42;;
70169;SDS011;57543;45.442;9.212;2022-12-20T08:46:09;53.42;;;27.60;;
70169;SDS011;57543;45.442;9.212;2022-12-20T08:49:14;53.63;;;27.47;;
70169;SDS011;57543;45.442;9.212;2022-12-20T08:52:17;51.85;;;27.95;;
70169;SDS011;57543;45.442;9.212;2022-12-20T08:55:21;53.33;;;27.52;;
70169;SDS011;57543;45.442;9.212;2022-12-20T08:58:25;54.35;;;27.73;;
70169;SDS011;57543;45.442;9.212;2022-12-20T09:01:29;55.08;;;27.40;;
70169;SDS011;57543;45.442;9.212;2022-12-20T09:04:35;55.90;;;27.23;;
70169;SDS011;57543;45.442;9.212;2022-12-20T09:07:39;51.38;;;26.55;;
70169;SDS011;57543;45.442;9.212;2022-12-20T09:10:47;54.38;;;27.73;;
70169;SDS011;57543;45.442;9.212;2022-12-20T09:13:52;56.08;;;27.42;;
70169;SDS011;57543;45.442;9.212;2022-12-20T09:16:57;53.67;;;27.08;;
70169;SDS011;57543;45.442;9.212;2022-12-20T09:20:01;57.33;;;29.10;;
70169;SDS011;57543;45.442;9.212;2022-12-20T09:23:05;53.03;;;28.08;;
70169;SDS011;57543;45.442;9.212;2022-12-20T09:26:12;53.60;;;27.85;;
70169;SDS011;57543;45.442;9.212;2022-12-20T09:29:17;56.20;;;26.40;;
70169;SDS011;57543;45.442;9.212;2022-12-20T09:32:20;48.75;;;25.45;;
70169;SDS011;57543;45.442;9.212;2022-12-20T09:35:24;48.57;;;25.83;;
70169;SDS011;57543;45.442;9.212;2022-12-20T09:38:27;56.95;;;26.92;;
70169;SDS011;57543;45.442;9.212;2022-12-20T09:41:37;52.25;;;26.38;;
70169;SDS011;57543;45.442;9.212;2022-12-20T09:44:42;49.60;;;25.85;;
70169;SDS011;57543;45.442;9.212;2022-12-20T09:47:46;48.80;;;25.88;;
70169;SDS011;57543;45.442;9.212;2022-12-20T09:51:00;50.10;;;25.57;;
70169;SDS011;57543;45.442;9.212;2022-12-20T10:00:43;52.75;;;27.08;;
70169;SDS011;57543;45.442;9.212;2022-12-20T10:03:48;50.45;;;27.08;;
70169;SDS011;57543;45.442;9.212;2022-12-20T10:16:48;47.78;;;26.00;;
70169;SDS011;57543;45.442;9.212;2022-12-20T10:20:11;47.40;;;25.75;;
70169;SDS011;57543;45.442;9.212;2022-12-20T10:26:42;48.90;;;25.88;;
70169;SDS011;57543;45.442;9.212;2022-12-20T10:29:47;47.88;;;25.65;;
70169;SDS011;57543;45.442;9.212;2022-12-20T10:32:54;47.88;;;26.00;;
70169;SDS011;57543;45.442;9.212;2022-12-20T10:39:39;47.13;;;25.57;;
70169;SDS011;57543;45.442;9.212;2022-12-20T10:42:44;52.88;;;26.55;;
70169;SDS011;57543;45.442;9.212;2022-12-20T10:45:55;51.38;;;26.85;;
70169;SDS011;57543;45.442;9.212;2022-12-20T10:49:19;51.70;;;26.55;;
70169;SDS011;57543;45.442;9.212;2022-12-20T10:52:23;51.75;;;26.10;;
70169;SDS011;57543;45.442;9.212;2022-12-20T10:58:40;48.20;;;25.83;;
70169;SDS011;57543;45.442;9.212;2022-12-20T11:01:45;54.03;;;27.55;;
70169;SDS011;57543;45.442;9.212;2022-12-20T11:04:56;51.08;;;26.95;;
70169;SDS011;57543;45.442;9.212;2022-12-20T11:08:20;51.92;;;27.33;;
70169;SDS011;57543;45.442;9.212;2022-12-20T11:11:26;48.77;;;27.10;;
70169;SDS011;57543;45.442;9.212;2022-12-20T11:14:31;49.15;;;26.15;;
70169;SDS011;57543;45.442;9.212;2022-12-20T11:17:50;53.88;;;27.50;;
70169;SDS011;57543;45.442;9.212;2022-12-20T11:24:13;54.80;;;27.88;;
70169;SDS011;57543;45.442;9.212;2022-12-20T11:34:41;50.58;;;29.17;;
70169;SDS011;57543;45.442;9.212;2022-12-20T11:41:28;46.80;;;26.45;;
70169;SDS011;57543;45.442;9.212;2022-12-20T11:54:28;49.10;;;26.38;;
70169;SDS011;57543;45.442;9.212;2022-12-20T11:57:45;46.08;;;25.77;;
70169;SDS011;57543;45.442;9.212;2022-12-20T12:01:02;48.73;;;25.83;;
70169;SDS011;57543;45.442;9.212;2022-12-20T12:04:24;42.20;;;24.60;;
70169;SDS011;57543;45.442;9.212;2022-12-20T12:07:30;44.13;;;25.15;;
70169;SDS011;57543;45.442;9.212;2022-12-20T12:10:36;46.00;;;25.38;;
70169;SDS011;57543;45.442;9.212;2022-12-20T12:13:44;48.83;;;24.67;;
70169;SDS011;57543;45.442;9.212;2022-12-20T12:16:49;44.57;;;24.53;;
70169;SDS011;57543;45.442;9.212;2022-12-20T12:19:55;41.08;;;23.17;;
70169;SDS011;57543;45.442;9.212;2022-12-20T12:26:39;44.67;;;23.50;;
70169;SDS011;57543;45.442;9.212;2022-12-20T12:29:43;40.42;;;22.98;;
70169;SDS011;57543;45.442;9.212;2022-12-20T12:33:21;46.33;;;24.77;;
70169;SDS011;57543;45.442;9.212;2022-12-20T12:45:59;42.28;;;23.65;;
70169;SDS011;57543;45.442;9.212;2022-12-20T12:49:05;43.50;;;24.17;;
70169;SDS011;57543;45.442;9.212;2022-12-20T12:52:25;44.08;;;24.75;;
70169;SDS011;57543;45.442;9.212;2022-12-20T12:58:40;45.03;;;24.45;;
70169;SDS011;57543;45.442;9.212;2022-12-20T13:01:51;43.00;;;23.95;;
70169;SDS011;57543;45.442;9.212;2022-12-20T13:08:24;42.08;;;23.40;;
70169;SDS011;57543;45.442;9.212;2022-12-20T13:16:03;45.17;;;23.40;;
70169;SDS011;57543;45.442;9.212;2022-12-20T13:19:12;44.05;;;25.25;;
70169;SDS011;57543;45.442;9.212;2022-12-20T13:25:27;42.10;;;23.42;;
70169;SDS011;57543;45.442;9.212;2022-12-20T13:31:35;45.92;;;24.98;;
70169;SDS011;57543;45.442;9.212;2022-12-20T13:34:55;45.35;;;25.42;;
70169;SDS011;57543;45.442;9.212;2022-12-20T13:38:01;48.40;;;25.57;;
70169;SDS011;57543;45.442;9.212;2022-12-20T13:44:44;44.28;;;24.83;;
70169;SDS011;57543;45.442;9.212;2022-12-20T13:47:51;46.58;;;26.08;;
70169;SDS011;57543;45.442;9.212;2022-12-20T13:50:59;49.17;;;26.48;;
70169;SDS011;57543;45.442;9.212;2022-12-20T13:54:05;46.40;;;24.57;;
70169;SDS011;57543;45.442;9.212;2022-12-20T13:57:15;47.13;;;25.35;;
70169;SDS011;57543;45.442;9.212;2022-12-20T14:00:24;45.80;;;24.98;;
70169;SDS011;57543;45.442;9.212;2022-12-20T14:03:28;43.50;;;24.35;;
70169;SDS011;57543;45.442;9.212;2022-12-20T14:06:33;46.72;;;25.15;;
70169;SDS011;57543;45.442;9.212;2022-12-20T14:09:37;44.90;;;24.03;;
70169;SDS011;57543;45.442;9.212;2022-12-20T14:12:42;46.20;;;24.02;;
70169;SDS011;57543;45.442;9.212;2022-12-20T14:15:48;47.20;;;25.02;;
70169;SDS011;57543;45.442;9.212;2022-12-20T14:19:11;46.22;;;24.85;;
70169;SDS011;57543;45.442;9.212;2022-12-20T14:22:16;46.53;;;25.23;;
70169;SDS011;57543;45.442;9.212;2022-12-20T14:25:42;45.03;;;23.77;;
70169;SDS011;57543;45.442;9.212;2022-12-20T14:29:10;42.65;;;24.33;;
70169;SDS011;57543;45.442;9.212;2022-12-20T14:32:18;46.33;;;24.92;;
70169;SDS011;57543;45.442;9.212;2022-12-20T14:35:23;43.35;;;24.05;;
70169;SDS011;57543;45.442;9.212;2022-12-20T14:38:28;43.85;;;24.25;;
70169;SDS011;57543;45.442;9.212;2022-12-20T14:41:37;45.13;;;25.03;;
70169;SDS011;57543;45.442;9.212;2022-12-20T14:44:42;45.65;;;24.45;;
70169;SDS011;57543;45.442;9.212;2022-12-20T14:51:08;48.50;;;24.08;;
70169;SDS011;57543;45.442;9.212;2022-12-20T14:54:15;45.90;;;24.88;;
70169;SDS011;57543;45.442;9.212;2022-12-20T15:00:37;49.33;;;25.15;;
70169;SDS011;57543;45.442;9.212;2022-12-20T15:03:51;52.53;;;25.75;;
70169;SDS011;57543;45.442;9.212;2022-12-20T15:06:55;44.95;;;24.75;;
70169;SDS011;57543;45.442;9.212;2022-12-20T15:09:59;46.92;;;24.63;;
70169;SDS011;57543;45.442;9.212;2022-12-20T15:13:03;45.10;;;25.10;;
70169;SDS011;57543;45.442;9.212;2022-12-20T15:19:16;43.85;;;24.20;;
70169;SDS011;57543;45.442;9.212;2022-12-20T15:22:20;44.47;;;25.55;;
70169;SDS011;57543;45.442;9.212;2022-12-20T15:25:24;44.88;;;23.98;;
70169;SDS011;57543;45.442;9.212;2022-12-20T15:28:29;45.83;;;24.07;;
70169;SDS011;57543;45.442;9.212;2022-12-20T15:31:33;44.70;;;23.63;;
70169;SDS011;57543;45.442;9.212;2022-12-20T15:34:38;46.00;;;25.20;;
70169;SDS011;57543;45.442;9.212;2022-12-20T15:37:42;49.08;;;26.23;;
70169;SDS011;57543;45.442;9.212;2022-12-20T15:40:47;44.15;;;24.30;;
70169;SDS011;57543;45.442;9.212;2022-12-20T15:43:56;46.07;;;24.77;;
70169;SDS011;57543;45.442;9.212;2022-12-20T15:47:01;44.95;;;23.75;;
70169;SDS011;57543;45.442;9.212;2022-12-20T15:50:06;47.22;;;26.05;;
70169;SDS011;57543;45.442;9.212;2022-12-20T15:53:14;45.75;;;24.88;;
70169;SDS011;57543;45.442;9.212;2022-12-20T15:56:20;47.15;;;25.75;;
70169;SDS011;57543;45.442;9.212;2022-12-20T15:59:25;46.70;;;25.37;;
70169;SDS011;57543;45.442;9.212;2022-12-20T16:02:29;45.78;;;24.92;;
70169;SDS011;57543;45.442;9.212;2022-12-20T16:05:32;43.67;;;24.73;;
70169;SDS011;57543;45.442;9.212;2022-12-20T16:08:39;46.13;;;23.77;;
70169;SDS011;57543;45.442;9.212;2022-12-20T16:11:43;45.75;;;24.95;;
70169;SDS011;57543;45.442;9.212;2022-12-20T16:14:47;40.50;;;22.93;;
70169;SDS011;57543;45.442;9.212;2022-12-20T16:17:50;45.10;;;24.27;;
70169;SDS011;57543;45.442;9.212;2022-12-20T16:20:54;43.88;;;23.58;;
70169;SDS011;57543;45.442;9.212;2022-12-20T16:23:58;45.30;;;23.88;;
70169;SDS011;57543;45.442;9.212;2022-12-20T16:27:02;45.45;;;23.70;;
70169;SDS011;57543;45.442;9.212;2022-12-20T16:30:07;42.23;;;24.27;;
70169;SDS011;57543;45.442;9.212;2022-12-20T16:33:16;44.28;;;24.05;;
70169;SDS011;57543;45.442;9.212;2022-12-20T16:36:22;45.65;;;24.38;;
70169;SDS011;57543;45.442;9.212;2022-12-20T16:39:26;43.95;;;24.65;;
70169;SDS011;57543;45.442;9.212;2022-12-20T16:42:29;47.25;;;24.27;;
70169;SDS011;57543;45.442;9.212;2022-12-20T16:45:33;46.27;;;23.57;;
70169;SDS011;57543;45.442;9.212;2022-12-20T16:48:37;51.90;;;25.98;;
70169;SDS011;57543;45.442;9.212;2022-12-20T16:51:44;46.97;;;25.02;;
70169;SDS011;57543;45.442;9.212;2022-12-20T16:54:49;45.55;;;24.80;;
70169;SDS011;57543;45.442;9.212;2022-12-20T16:57:53;46.58;;;25.75;;
70169;SDS011;57543;45.442;9.212;2022-12-20T17:00:56;46.13;;;25.33;;
70169;SDS011;57543;45.442;9.212;2022-12-20T17:04:00;47.83;;;25.92;;
70169;SDS011;57543;45.442;9.212;2022-12-20T17:07:04;47.20;;;25.17;;
70169;SDS011;57543;45.442;9.212;2022-12-20T17:10:08;50.80;;;25.42;;
70169;SDS011;57543;45.442;9.212;2022-12-20T17:13:12;47.03;;;24.95;;
70169;SDS011;57543;45.442;9.212;2022-12-20T17:16:17;51.00;;;26.03;;
70169;SDS011;57543;45.442;9.212;2022-12-20T17:19:21;47.80;;;25.45;;
70169;SDS011;57543;45.442;9.212;2022-12-20T17:22:24;47.13;;;25.88;;
70169;SDS011;57543;45.442;9.212;2022-12-20T17:25:32;50.10;;;26.70;;
70169;SDS011;57543;45.442;9.212;2022-12-20T17:28:38;48.35;;;25.58;;
70169;SDS011;57543;45.442;9.212;2022-12-20T17:31:42;47.67;;;24.73;;
70169;SDS011;57543;45.442;9.212;2022-12-20T17:34:47;48.53;;;25.95;;
70169;SDS011;57543;45.442;9.212;2022-12-20T17:37:51;49.78;;;26.10;;
70169;SDS011;57543;45.442;9.212;2022-12-20T17:40:57;52.47;;;26.55;;
70169;SDS011;57543;45.442;9.212;2022-12-20T17:44:01;51.75;;;27.40;;
70169;SDS011;57543;45.442;9.212;2022-12-20T17:47:07;49.37;;;26.57;;
70169;SDS011;57543;45.442;9.212;2022-12-20T17:50:11;52.75;;;26.05;;
70169;SDS011;57543;45.442;9.212;2022-12-20T17:53:14;55.03;;;27.50;;
70169;SDS011;57543;45.442;9.212;2022-12-20T17:56:24;51.78;;;26.65;;
70169;SDS011;57543;45.442;9.212;2022-12-20T17:59:30;48.80;;;26.27;;
70169;SDS011;57543;45.442;9.212;2022-12-20T18:02:34;52.67;;;26.27;;
70169;SDS011;57543;45.442;9.212;2022-12-20T18:05:38;49.15;;;26.85;;
70169;SDS011;57543;45.442;9.212;2022-12-20T18:08:42;52.88;;;27.35;;
70169;SDS011;57543;45.442;9.212;2022-12-20T18:11:50;50.03;;;26.90;;
70169;SDS011;57543;45.442;9.212;2022-12-20T18:14:54;53.60;;;27.63;;
70169;SDS011;57543;45.442;9.212;2022-12-20T18:17:57;55.30;;;28.90;;
70169;SDS011;57543;45.442;9.212;2022-12-20T18:21:04;56.08;;;27.02;;
70169;SDS011;57543;45.442;9.212;2022-12-20T18:24:18;54.80;;;29.05;;
70169;SDS011;57543;45.442;9.212;2022-12-20T18:27:23;51.92;;;27.55;;
70169;SDS011;57543;45.442;9.212;2022-12-20T18:30:27;53.22;;;27.05;;
70169;SDS011;57543;45.442;9.212;2022-12-20T18:33:30;53.13;;;26.53;;
70169;SDS011;57543;45.442;9.212;2022-12-20T18:36:35;55.22;;;27.65;;
70169;SDS011;57543;45.442;9.212;2022-12-20T18:39:39;52.42;;;28.00;;
70169;SDS011;57543;45.442;9.212;2022-12-20T18:42:43;52.97;;;27.55;;
70169;SDS011;57543;45.442;9.212;2022-12-20T18:45:47;51.65;;;27.50;;
70169;SDS011;57543;45.442;9.212;2022-12-20T18:48:53;53.10;;;26.87;;
70169;SDS011;57543;45.442;9.212;2022-12-20T18:51:57;51.13;;;26.67;;
70169;SDS011;57543;45.442;9.212;2022-12-20T18:55:02;52.65;;;28.25;;
70169;SDS011;57543;45.442;9.212;2022-12-20T18:58:06;51.22;;;27.23;;
70169;SDS011;57543;45.442;9.212;2022-12-20T19:01:24;56.13;;;28.38;;
70169;SDS011;57543;45.442;9.212;2022-12-20T19:04:30;55.27;;;28.37;;
70169;SDS011;57543;45.442;9.212;2022-12-20T19:07:34;50.50;;;26.63;;
70169;SDS011;57543;45.442;9.212;2022-12-20T19:10:38;50.90;;;28.10;;
70169;SDS011;57543;45.442;9.212;2022-12-20T19:13:42;53.38;;;29.10;;
70169;SDS011;57543;45.442;9.212;2022-12-20T19:16:47;56.20;;;28.98;;
70169;SDS011;57543;45.442;9.212;2022-12-20T19:19:51;56.10;;;28.63;;
70169;SDS011;57543;45.442;9.212;2022-12-20T19:22:55;52.53;;;26.98;;
70169;SDS011;57543;45.442;9.212;2022-12-20T19:26:05;52.33;;;28.73;;
70169;SDS011;57543;45.442;9.212;2022-12-20T19:29:11;54.90;;;28.73;;
70169;SDS011;57543;45.442;9.212;2022-12-20T19:32:17;55.90;;;29.05;;
70169;SDS011;57543;45.442;9.212;2022-12-20T19:35:21;50.80;;;28.10;;
70169;SDS011;57543;45.442;9.212;2022-12-20T19:38:25;54.25;;;29.65;;
70169;SDS011;57543;45.442;9.212;2022-12-20T19:41:30;52.13;;;28.17;;
70169;SDS011;57543;45.442;9.212;2022-12-20T19:44:35;50.65;;;28.23;;
70169;SDS011;57543;45.442;9.212;2022-12-20T19:47:39;54.33;;;28.30;;
70169;SDS011;57543;45.442;9.212;2022-12-20T19:50:42;53.70;;;27.30;;
70169;SDS011;57543;45.442;9.212;2022-12-20T19:53:46;52.80;;;28.27;;
70169;SDS011;57543;45.442;9.212;2022-12-20T19:56:51;57.55;;;30.85;;
70169;SDS011;57543;45.442;9.212;2022-12-20T19:59:55;51.47;;;27.90;;